sensor_id;sensor_type;location;lat;lon;timestamp;pressure;altitude;pressure_sealevel;temperature;humidity
55217;BME280;41086;46.736;15.666;2024-01-15T00:00:20;97208.41;;;-2.84;100.00
55217;BME280;41086;46.736;15.666;2024-01-15T00:02:47;97199.91;;;-3.40;100.00
55217;BME280;41086;46.736;15.666;2024-01-15T00:05:14;97215.31;;;-3.10;100.00
55217;BME280;41086;46.736;15.666;2024-01-15T00:07:41;97214.59;;;-3.14;100.00
55217;BME280;41086;46.736;15.666;2024-01-15T00:10:07;97219.56;;;-3.07;100.00
55217;BME280;41086;46.736;15.666;2024-01-15T00:12:34;97231.06;;;-3.15;100.00
55217;BME280;41086;46.736;15.666;2024-01-15T00:15:01;97199.78;;;-3.10;100.00
55217;BME280;41086;46.736;15.666;2024-01-15T00:17:28;97218.47;;;-3.00;100.00
55217;BME280;41086;46.736;15.666;2024-01-15T00:19:55;97206.66;;;-2.84;100.00
55217;BME280;41086;46.736;15.666;2024-01-15T00:22:25;97195.56;;;-2.87;100.00
55217;BME280;41086;46.736;15.666;2024-01-15T00:24:51;97187.25;;;-2.97;100.00
55217;BME280;41086;46.736;15.666;2024-01-15T00:27:18;97176.44;;;-2.85;100.00
55217;BME280;41086;46.736;15.666;2024-01-15T00:29:45;97181.78;;;-2.66;100.00
55217;BME280;41086;46.736;15.666;2024-01-15T00:32:12;97176.13;;;-2.52;100.00
55217;BME280;41086;46.736;15.666;2024-01-15T00:34:39;97170.13;;;-2.54;100.00
55217;BME280;41086;46.736;15.666;2024-01-15T00:37:05;97154.97;;;-2.65;100.00
55217;BME280;41086;46.736;15.666;2024-01-15T00:39:33;97142.84;;;-2.64;100.00
55217;BME280;41086;46.736;15.666;2024-01-15T00:42:00;97136.56;;;-2.59;100.00
55217;BME280;41086;46.736;15.666;2024-01-15T00:44:27;97153.09;;;-2.61;100.00
55217;BME280;41086;46.736;15.666;2024-01-15T00:46:53;97141.72;;;-2.81;100.00
55217;BME280;41086;46.736;15.666;2024-01-15T00:49:20;97139.66;;;-2.96;100.00
55217;BME280;41086;46.736;15.666;2024-01-15T00:51:47;97132.22;;;-3.05;100.00
55217;BME280;41086;46.736;15.666;2024-01-15T00:54:14;97130.47;;;-3.05;100.00
55217;BME280;41086;46.736;15.666;2024-01-15T00:56:41;97136.56;;;-3.06;100.00
55217;BME280;41086;46.736;15.666;2024-01-15T00:59:08;97129.28;;;-2.96;100.00
55217;BME280;41086;46.736;15.666;2024-01-15T01:01:36;97127.91;;;-2.81;100.00
55217;BME280;41086;46.736;15.666;2024-01-15T01:04:04;97116.63;;;-2.80;100.00
55217;BME280;41086;46.736;15.666;2024-01-15T01:06:31;97108.03;;;-2.82;100.00
55217;BME280;41086;46.736;15.666;2024-01-15T01:09:00;97102.94;;;-2.84;100.00
55217;BME280;41086;46.736;15.666;2024-01-15T01:11:26;97101.19;;;-2.83;100.00
55217;BME280;41086;46.736;15.666;2024-01-15T01:13:53;97104.97;;;-2.92;100.00
55217;BME280;41086;46.736;15.666;2024-01-15T01:16:20;97108.75;;;-3.01;100.00
55217;BME280;41086;46.736;15.666;2024-01-15T01:18:47;97098.81;;;-2.90;100.00
55217;BME280;41086;46.736;15.666;2024-01-15T01:21:14;97100.91;;;-2.76;100.00
55217;BME280;41086;46.736;15.666;2024-01-15T01:23:41;97103.78;;;-2.83;100.00
55217;BME280;41086;46.736;15.666;2024-01-15T01:26:08;97100.16;;;-3.03;100.00
55217;BME280;41086;46.736;15.666;2024-01-15T01:28:34;97083.28;;;-2.90;100.00
55217;BME280;41086;46.736;15.666;2024-01-15T01:31:01;97102.19;;;-2.64;100.00
55217;BME280;41086;46.736;15.666;2024-01-15T01:33:28;97097.34;;;-2.73;100.00
55217;BME280;41086;46.736;15.666;2024-01-15T01:35:55;97088.25;;;-2.61;100.00
55217;BME280;41086;46.736;15.666;2024-01-15T01:38:23;97086.91;;;-2.72;100.00
55217;BME280;41086;46.736;15.666;2024-01-15T01:40:49;97080.84;;;-2.71;100.00
55217;BME280;41086;46.736;15.666;2024-01-15T01:43:18;97083.94;;;-2.17;100.00
55217;BME280;41086;46.736;15.666;2024-01-15T01:45:45;97064.59;;;-2.10;100.00
55217;BME280;41086;46.736;15.666;2024-01-15T01:48:13;97070.09;;;-1.95;100.00
55217;BME280;41086;46.736;15.666;2024-01-15T01:50:40;97055.13;;;-2.11;100.00
55217;BME280;41086;46.736;15.666;2024-01-15T01:53:07;97076.25;;;-2.64;100.00
55217;BME280;41086;46.736;15.666;2024-01-15T01:55:34;97063.88;;;-2.79;100.00
55217;BME280;41086;46.736;15.666;2024-01-15T01:58:01;97077.75;;;-2.58;100.00
55217;BME280;41086;46.736;15.666;2024-01-15T02:00:29;97060.47;;;-2.58;100.00
55217;BME280;41086;46.736;15.666;2024-01-15T02:02:57;97047.28;;;-2.53;100.00
55217;BME280;41086;46.736;15.666;2024-01-15T02:05:23;97042.41;;;-2.39;100.00
55217;BME280;41086;46.736;15.666;2024-01-15T02:07:51;97020.69;;;-2.80;100.00
55217;BME280;41086;46.736;15.666;2024-01-15T02:10:17;97047.59;;;-2.61;100.00
55217;BME280;41086;46.736;15.666;2024-01-15T02:12:44;97044.66;;;-2.52;100.00
55217;BME280;41086;46.736;15.666;2024-01-15T02:15:11;97044.81;;;-2.34;100.00
55217;BME280;41086;46.736;15.666;2024-01-15T02:18:02;97036.34;;;-2.17;100.00
55217;BME280;41086;46.736;15.666;2024-01-15T02:20:30;97029.81;;;-1.85;100.00
55217;BME280;41086;46.736;15.666;2024-01-15T02:23:08;97007.50;;;-1.89;100.00
55217;BME280;41086;46.736;15.666;2024-01-15T02:25:41;97008.88;;;-1.60;100.00
55217;BME280;41086;46.736;15.666;2024-01-15T02:28:10;96991.53;;;-1.60;100.00
55217;BME280;41086;46.736;15.666;2024-01-15T02:30:38;96993.69;;;-1.50;100.00
55217;BME280;41086;46.736;15.666;2024-01-15T02:33:09;96975.38;;;-1.47;100.00
55217;BME280;41086;46.736;15.666;2024-01-15T02:35:37;96974.97;;;-1.38;100.00
55217;BME280;41086;46.736;15.666;2024-01-15T02:38:05;96982.97;;;-1.43;100.00
55217;BME280;41086;46.736;15.666;2024-01-15T02:40:33;96973.72;;;-1.69;100.00
55217;BME280;41086;46.736;15.666;2024-01-15T02:43:00;96953.47;;;-1.42;100.00
55217;BME280;41086;46.736;15.666;2024-01-15T02:45:27;96953.28;;;-1.18;100.00
55217;BME280;41086;46.736;15.666;2024-01-15T02:47:54;96945.97;;;-1.10;100.00
55217;BME280;41086;46.736;15.666;2024-01-15T02:50:21;96924.47;;;-1.14;100.00
55217;BME280;41086;46.736;15.666;2024-01-15T02:52:48;96941.94;;;-0.98;100.00
55217;BME280;41086;46.736;15.666;2024-01-15T02:55:15;96933.16;;;-0.96;100.00
55217;BME280;41086;46.736;15.666;2024-01-15T02:57:42;96946.78;;;-0.91;100.00
55217;BME280;41086;46.736;15.666;2024-01-15T03:00:09;96954.53;;;-1.27;100.00
55217;BME280;41086;46.736;15.666;2024-01-15T03:02:37;96969.13;;;-2.24;100.00
55217;BME280;41086;46.736;15.666;2024-01-15T03:05:09;96956.41;;;-2.72;100.00
55217;BME280;41086;46.736;15.666;2024-01-15T03:07:36;96970.19;;;-2.72;100.00
55217;BME280;41086;46.736;15.666;2024-01-15T03:10:04;96977.41;;;-2.78;100.00
55217;BME280;41086;46.736;15.666;2024-01-15T03:12:31;96982.34;;;-3.18;100.00
55217;BME280;41086;46.736;15.666;2024-01-15T03:14:58;96964.28;;;-3.43;100.00
55217;BME280;41086;46.736;15.666;2024-01-15T03:17:25;96964.19;;;-3.40;100.00
55217;BME280;41086;46.736;15.666;2024-01-15T03:19:51;96979.72;;;-3.16;100.00
55217;BME280;41086;46.736;15.666;2024-01-15T03:22:18;96979.72;;;-3.16;100.00
55217;BME280;41086;46.736;15.666;2024-01-15T03:24:45;96982.75;;;-3.05;100.00
55217;BME280;41086;46.736;15.666;2024-01-15T03:27:12;96972.69;;;-2.91;100.00
55217;BME280;41086;46.736;15.666;2024-01-15T03:29:40;96956.09;;;-2.64;100.00
55217;BME280;41086;46.736;15.666;2024-01-15T03:32:07;96953.13;;;-2.77;100.00
55217;BME280;41086;46.736;15.666;2024-01-15T03:34:34;96948.75;;;-2.33;100.00
55217;BME280;41086;46.736;15.666;2024-01-15T03:37:01;96961.00;;;-2.36;100.00
55217;BME280;41086;46.736;15.666;2024-01-15T03:39:27;96951.66;;;-2.20;100.00
55217;BME280;41086;46.736;15.666;2024-01-15T03:41:55;96948.06;;;-1.95;100.00
55217;BME280;41086;46.736;15.666;2024-01-15T03:44:22;96926.22;;;-1.71;100.00
55217;BME280;41086;46.736;15.666;2024-01-15T03:46:49;96951.78;;;-1.43;100.00
55217;BME280;41086;46.736;15.666;2024-01-15T03:49:15;96944.28;;;-1.30;100.00
55217;BME280;41086;46.736;15.666;2024-01-15T03:51:42;96956.28;;;-0.90;100.00
55217;BME280;41086;46.736;15.666;2024-01-15T03:54:09;96929.44;;;-1.09;100.00
55217;BME280;41086;46.736;15.666;2024-01-15T03:56:36;96948.69;;;-1.51;100.00
55217;BME280;41086;46.736;15.666;2024-01-15T03:59:03;96941.03;;;-1.93;100.00
55217;BME280;41086;46.736;15.666;2024-01-15T04:01:30;96936.41;;;-1.87;100.00
55217;BME280;41086;46.736;15.666;2024-01-15T04:03:57;96932.66;;;-1.61;100.00
55217;BME280;41086;46.736;15.666;2024-01-15T04:06:24;96931.13;;;-1.46;100.00
55217;BME280;41086;46.736;15.666;2024-01-15T04:08:51;96926.13;;;-1.13;100.00
55217;BME280;41086;46.736;15.666;2024-01-15T04:11:18;96916.34;;;-0.88;100.00
55217;BME280;41086;46.736;15.666;2024-01-15T04:13:44;96924.03;;;-1.42;100.00
55217;BME280;41086;46.736;15.666;2024-01-15T04:16:11;96923.94;;;-1.79;100.00
55217;BME280;41086;46.736;15.666;2024-01-15T04:18:38;96923.53;;;-1.69;100.00
55217;BME280;41086;46.736;15.666;2024-01-15T04:21:05;96921.28;;;-1.58;100.00
55217;BME280;41086;46.736;15.666;2024-01-15T04:23:33;96917.06;;;-1.23;100.00
55217;BME280;41086;46.736;15.666;2024-01-15T04:26:00;96902.19;;;-1.00;100.00
55217;BME280;41086;46.736;15.666;2024-01-15T04:28:27;96908.88;;;-0.60;100.00
55217;BME280;41086;46.736;15.666;2024-01-15T04:30:54;96905.06;;;-0.70;100.00
55217;BME280;41086;46.736;15.666;2024-01-15T04:33:21;96908.22;;;-1.00;100.00
55217;BME280;41086;46.736;15.666;2024-01-15T04:35:49;96893.03;;;-0.73;100.00
55217;BME280;41086;46.736;15.666;2024-01-15T04:38:16;96900.16;;;-0.59;100.00
55217;BME280;41086;46.736;15.666;2024-01-15T04:40:42;96902.50;;;-0.89;100.00
55217;BME280;41086;46.736;15.666;2024-01-15T04:43:09;96907.94;;;-1.31;100.00
55217;BME280;41086;46.736;15.666;2024-01-15T04:45:36;96912.94;;;-1.27;100.00
55217;BME280;41086;46.736;15.666;2024-01-15T04:48:03;96893.63;;;-1.40;100.00
55217;BME280;41086;46.736;15.666;2024-01-15T04:50:30;96893.13;;;-1.29;100.00
55217;BME280;41086;46.736;15.666;2024-01-15T04:52:57;96891.53;;;-1.51;100.00
55217;BME280;41086;46.736;15.666;2024-01-15T04:55:23;96902.94;;;-1.74;100.00
55217;BME280;41086;46.736;15.666;2024-01-15T04:57:50;96898.06;;;-2.01;100.00
55217;BME280;41086;46.736;15.666;2024-01-15T05:00:17;96917.56;;;-2.11;100.00
55217;BME280;41086;46.736;15.666;2024-01-15T05:02:44;96909.38;;;-2.22;100.00
55217;BME280;41086;46.736;15.666;2024-01-15T05:05:11;96902.28;;;-1.98;100.00
55217;BME280;41086;46.736;15.666;2024-01-15T05:07:38;96901.47;;;-2.19;100.00
55217;BME280;41086;46.736;15.666;2024-01-15T05:10:05;96909.69;;;-2.30;100.00
55217;BME280;41086;46.736;15.666;2024-01-15T05:12:34;96919.16;;;-2.29;100.00
55217;BME280;41086;46.736;15.666;2024-01-15T05:15:00;96909.25;;;-2.19;100.00
55217;BME280;41086;46.736;15.666;2024-01-15T05:17:27;96915.72;;;-2.29;100.00
55217;BME280;41086;46.736;15.666;2024-01-15T05:19:54;96916.50;;;-1.67;100.00
55217;BME280;41086;46.736;15.666;2024-01-15T05:22:21;96928.31;;;-1.41;100.00
55217;BME280;41086;46.736;15.666;2024-01-15T05:24:51;96931.34;;;-1.31;100.00
55217;BME280;41086;46.736;15.666;2024-01-15T05:27:18;96936.78;;;-1.75;100.00
55217;BME280;41086;46.736;15.666;2024-01-15T05:29:45;96935.22;;;-1.80;100.00
55217;BME280;41086;46.736;15.666;2024-01-15T05:32:12;96937.53;;;-1.34;100.00
55217;BME280;41086;46.736;15.666;2024-01-15T05:34:39;96936.69;;;-1.53;100.00
55217;BME280;41086;46.736;15.666;2024-01-15T05:37:07;96947.00;;;-1.52;100.00
55217;BME280;41086;46.736;15.666;2024-01-15T05:39:34;96947.28;;;-1.39;100.00
55217;BME280;41086;46.736;15.666;2024-01-15T05:42:01;96938.19;;;-1.87;100.00
55217;BME280;41086;46.736;15.666;2024-01-15T05:44:29;96936.75;;;-1.94;100.00
55217;BME280;41086;46.736;15.666;2024-01-15T05:46:55;96941.94;;;-1.94;100.00
55217;BME280;41086;46.736;15.666;2024-01-15T05:49:22;96945.75;;;-1.83;100.00
55217;BME280;41086;46.736;15.666;2024-01-15T05:51:49;96945.91;;;-2.06;100.00
55217;BME280;41086;46.736;15.666;2024-01-15T05:54:18;96933.69;;;-1.84;100.00
55217;BME280;41086;46.736;15.666;2024-01-15T05:56:46;96930.50;;;-2.31;100.00
55217;BME280;41086;46.736;15.666;2024-01-15T05:59:13;96937.78;;;-2.39;100.00
55217;BME280;41086;46.736;15.666;2024-01-15T06:01:41;96935.66;;;-2.30;100.00
55217;BME280;41086;46.736;15.666;2024-01-15T06:04:08;96934.09;;;-2.13;100.00
55217;BME280;41086;46.736;15.666;2024-01-15T06:06:35;96920.66;;;-2.43;100.00
55217;BME280;41086;46.736;15.666;2024-01-15T06:09:02;96934.56;;;-2.24;100.00
55217;BME280;41086;46.736;15.666;2024-01-15T06:11:32;96936.00;;;-2.39;100.00
55217;BME280;41086;46.736;15.666;2024-01-15T06:14:00;96930.19;;;-2.44;100.00
55217;BME280;41086;46.736;15.666;2024-01-15T06:16:29;96926.50;;;-2.38;100.00
55217;BME280;41086;46.736;15.666;2024-01-15T06:18:56;96943.84;;;-1.98;100.00
55217;BME280;41086;46.736;15.666;2024-01-15T06:21:24;96945.66;;;-1.42;100.00
55217;BME280;41086;46.736;15.666;2024-01-15T06:23:51;96944.19;;;-1.47;100.00
55217;BME280;41086;46.736;15.666;2024-01-15T06:26:18;96955.16;;;-1.60;100.00
55217;BME280;41086;46.736;15.666;2024-01-15T06:28:44;96936.84;;;-1.77;100.00
55217;BME280;41086;46.736;15.666;2024-01-15T06:31:11;96953.44;;;-2.00;100.00
55217;BME280;41086;46.736;15.666;2024-01-15T06:33:38;96945.25;;;-2.11;100.00
55217;BME280;41086;46.736;15.666;2024-01-15T06:36:06;96958.13;;;-2.08;100.00
55217;BME280;41086;46.736;15.666;2024-01-15T06:38:34;96966.22;;;-1.95;100.00
55217;BME280;41086;46.736;15.666;2024-01-15T06:41:00;96974.25;;;-2.22;100.00
55217;BME280;41086;46.736;15.666;2024-01-15T06:43:27;96983.50;;;-2.37;100.00
55217;BME280;41086;46.736;15.666;2024-01-15T06:45:54;96982.53;;;-2.55;100.00
55217;BME280;41086;46.736;15.666;2024-01-15T06:48:21;96976.94;;;-2.46;100.00
55217;BME280;41086;46.736;15.666;2024-01-15T06:50:48;96978.41;;;-2.38;100.00
55217;BME280;41086;46.736;15.666;2024-01-15T06:53:15;96975.69;;;-2.15;100.00
55217;BME280;41086;46.736;15.666;2024-01-15T06:55:42;96968.63;;;-2.11;100.00
55217;BME280;41086;46.736;15.666;2024-01-15T06:58:09;96978.81;;;-1.86;100.00
55217;BME280;41086;46.736;15.666;2024-01-15T07:00:36;96981.28;;;-1.83;100.00
55217;BME280;41086;46.736;15.666;2024-01-15T07:03:03;97004.22;;;-2.15;100.00
55217;BME280;41086;46.736;15.666;2024-01-15T07:05:29;97006.19;;;-1.99;100.00
55217;BME280;41086;46.736;15.666;2024-01-15T07:07:57;97015.53;;;-1.54;100.00
55217;BME280;41086;46.736;15.666;2024-01-15T07:10:24;97017.06;;;-1.30;100.00
55217;BME280;41086;46.736;15.666;2024-01-15T07:12:51;97014.72;;;-1.75;100.00
55217;BME280;41086;46.736;15.666;2024-01-15T07:15:18;97019.63;;;-2.10;100.00
55217;BME280;41086;46.736;15.666;2024-01-15T07:17:45;97016.13;;;-2.52;100.00
55217;BME280;41086;46.736;15.666;2024-01-15T07:20:12;97002.81;;;-2.66;100.00
55217;BME280;41086;46.736;15.666;2024-01-15T07:22:38;97016.91;;;-2.50;100.00
55217;BME280;41086;46.736;15.666;2024-01-15T07:25:05;97009.59;;;-1.97;100.00
55217;BME280;41086;46.736;15.666;2024-01-15T07:27:33;97012.47;;;-1.85;100.00
55217;BME280;41086;46.736;15.666;2024-01-15T07:30:00;97022.59;;;-2.19;100.00
55217;BME280;41086;46.736;15.666;2024-01-15T07:32:29;97028.16;;;-2.29;100.00
55217;BME280;41086;46.736;15.666;2024-01-15T07:34:56;97033.56;;;-2.33;100.00
55217;BME280;41086;46.736;15.666;2024-01-15T07:37:23;97031.69;;;-2.09;100.00
55217;BME280;41086;46.736;15.666;2024-01-15T07:39:50;97030.81;;;-1.67;100.00
55217;BME280;41086;46.736;15.666;2024-01-15T07:42:17;97033.34;;;-1.26;100.00
55217;BME280;41086;46.736;15.666;2024-01-15T07:44:44;97026.59;;;-1.30;98.70
55217;BME280;41086;46.736;15.666;2024-01-15T07:47:11;97031.66;;;-1.46;99.53
55217;BME280;41086;46.736;15.666;2024-01-15T07:49:38;97024.19;;;-1.95;100.00
55217;BME280;41086;46.736;15.666;2024-01-15T07:52:05;97035.59;;;-1.99;100.00
55217;BME280;41086;46.736;15.666;2024-01-15T07:54:33;97036.56;;;-1.61;100.00
55217;BME280;41086;46.736;15.666;2024-01-15T07:57:00;97036.06;;;-1.48;100.00
55217;BME280;41086;46.736;15.666;2024-01-15T07:59:29;97039.16;;;-1.61;100.00
55217;BME280;41086;46.736;15.666;2024-01-15T08:01:56;97019.13;;;-1.77;100.00
55217;BME280;41086;46.736;15.666;2024-01-15T08:04:22;97043.91;;;-1.50;100.00
55217;BME280;41086;46.736;15.666;2024-01-15T08:06:50;97044.41;;;-1.42;100.00
55217;BME280;41086;46.736;15.666;2024-01-15T08:09:16;97043.06;;;-1.30;100.00
55217;BME280;41086;46.736;15.666;2024-01-15T08:11:43;97031.94;;;-1.34;100.00
55217;BME280;41086;46.736;15.666;2024-01-15T08:14:11;97042.94;;;-1.08;100.00
55217;BME280;41086;46.736;15.666;2024-01-15T08:16:38;97029.66;;;-1.02;100.00
55217;BME280;41086;46.736;15.666;2024-01-15T08:19:05;97053.75;;;-0.98;100.00
55217;BME280;41086;46.736;15.666;2024-01-15T08:21:32;97053.13;;;-0.65;99.02
55217;BME280;41086;46.736;15.666;2024-01-15T08:24:00;97057.19;;;-0.60;99.83
55217;BME280;41086;46.736;15.666;2024-01-15T08:26:30;97061.16;;;-0.51;100.00
55217;BME280;41086;46.736;15.666;2024-01-15T08:28:58;97044.47;;;-0.47;99.76
55217;BME280;41086;46.736;15.666;2024-01-15T08:31:25;97061.78;;;-0.46;98.01
55217;BME280;41086;46.736;15.666;2024-01-15T08:33:51;97063.66;;;0.06;98.55
55217;BME280;41086;46.736;15.666;2024-01-15T08:36:19;97069.22;;;0.50;94.29
55217;BME280;41086;46.736;15.666;2024-01-15T08:38:45;97073.22;;;0.57;90.91
55217;BME280;41086;46.736;15.666;2024-01-15T08:41:13;97071.13;;;0.64;93.22
55217;BME280;41086;46.736;15.666;2024-01-15T08:43:40;97066.75;;;0.64;91.66
55217;BME280;41086;46.736;15.666;2024-01-15T08:46:07;97080.34;;;0.71;93.74
55217;BME280;41086;46.736;15.666;2024-01-15T08:48:34;97085.84;;;1.16;87.93
55217;BME280;41086;46.736;15.666;2024-01-15T08:51:01;97082.41;;;1.31;87.15
55217;BME280;41086;46.736;15.666;2024-01-15T08:53:28;97086.28;;;1.24;87.96
55217;BME280;41086;46.736;15.666;2024-01-15T08:55:55;97078.47;;;1.40;90.90
55217;BME280;41086;46.736;15.666;2024-01-15T08:58:23;97081.75;;;1.43;86.45
55217;BME280;41086;46.736;15.666;2024-01-15T09:00:50;97082.25;;;2.28;83.35
55217;BME280;41086;46.736;15.666;2024-01-15T09:03:17;97070.88;;;2.59;81.38
55217;BME280;41086;46.736;15.666;2024-01-15T09:05:44;97073.41;;;2.30;80.07
55217;BME280;41086;46.736;15.666;2024-01-15T09:08:11;97069.66;;;2.20;82.52
55217;BME280;41086;46.736;15.666;2024-01-15T09:10:38;97055.59;;;2.07;83.60
55217;BME280;41086;46.736;15.666;2024-01-15T09:13:05;97054.97;;;1.40;85.47
55217;BME280;41086;46.736;15.666;2024-01-15T09:15:32;97061.78;;;1.26;88.25
55217;BME280;41086;46.736;15.666;2024-01-15T09:17:59;97062.47;;;1.46;88.85
55217;BME280;41086;46.736;15.666;2024-01-15T09:20:26;97071.56;;;1.70;86.95
55217;BME280;41086;46.736;15.666;2024-01-15T09:22:54;97066.91;;;1.91;87.46
55217;BME280;41086;46.736;15.666;2024-01-15T09:25:20;97056.47;;;2.52;82.98
55217;BME280;41086;46.736;15.666;2024-01-15T09:27:47;97064.38;;;2.80;80.25
55217;BME280;41086;46.736;15.666;2024-01-15T09:30:15;97073.91;;;2.37;82.09
55217;BME280;41086;46.736;15.666;2024-01-15T09:32:42;97069.41;;;2.83;80.14
55217;BME280;41086;46.736;15.666;2024-01-15T09:35:09;97067.25;;;2.90;81.20
55217;BME280;41086;46.736;15.666;2024-01-15T09:37:37;97058.06;;;2.54;80.65
55217;BME280;41086;46.736;15.666;2024-01-15T09:40:14;97049.63;;;2.49;81.25
55217;BME280;41086;46.736;15.666;2024-01-15T09:42:44;97051.09;;;2.69;82.46
55217;BME280;41086;46.736;15.666;2024-01-15T09:45:12;97049.31;;;2.98;82.71
55217;BME280;41086;46.736;15.666;2024-01-15T09:47:40;97047.84;;;2.94;80.02
55217;BME280;41086;46.736;15.666;2024-01-15T09:50:13;97043.06;;;3.29;78.49
55217;BME280;41086;46.736;15.666;2024-01-15T09:52:40;97055.84;;;2.77;80.57
55217;BME280;41086;46.736;15.666;2024-01-15T09:55:07;97053.53;;;3.15;79.61
55217;BME280;41086;46.736;15.666;2024-01-15T09:57:36;97053.25;;;2.91;81.92
55217;BME280;41086;46.736;15.666;2024-01-15T10:00:04;97051.47;;;3.06;80.83
55217;BME280;41086;46.736;15.666;2024-01-15T10:02:33;97056.19;;;3.57;78.88
55217;BME280;41086;46.736;15.666;2024-01-15T10:05:02;97046.78;;;4.48;72.80
55217;BME280;41086;46.736;15.666;2024-01-15T10:07:30;97041.63;;;4.72;72.79
55217;BME280;41086;46.736;15.666;2024-01-15T10:10:01;97045.03;;;5.00;71.00
55217;BME280;41086;46.736;15.666;2024-01-15T10:12:28;97030.19;;;5.11;68.19
55217;BME280;41086;46.736;15.666;2024-01-15T10:14:58;97029.03;;;4.90;68.74
55217;BME280;41086;46.736;15.666;2024-01-15T10:17:25;97019.09;;;4.70;69.76
55217;BME280;41086;46.736;15.666;2024-01-15T10:19:54;96976.19;;;4.18;72.61
55217;BME280;41086;46.736;15.666;2024-01-15T10:22:21;96997.13;;;4.58;71.15
55217;BME280;41086;46.736;15.666;2024-01-15T10:24:48;97009.19;;;5.11;70.18
55217;BME280;41086;46.736;15.666;2024-01-15T10:27:16;97005.69;;;5.97;64.64
55217;BME280;41086;46.736;15.666;2024-01-15T10:29:43;96998.19;;;6.51;64.33
55217;BME280;41086;46.736;15.666;2024-01-15T10:32:10;97000.19;;;7.16;61.27
55217;BME280;41086;46.736;15.666;2024-01-15T10:34:38;97007.59;;;7.56;58.67
55217;BME280;41086;46.736;15.666;2024-01-15T10:37:10;97002.56;;;7.96;54.87
55217;BME280;41086;46.736;15.666;2024-01-15T10:39:37;96994.03;;;8.36;54.77
55217;BME280;41086;46.736;15.666;2024-01-15T10:42:05;96979.28;;;8.76;52.81
55217;BME280;41086;46.736;15.666;2024-01-15T10:44:33;96977.03;;;8.71;51.55
55217;BME280;41086;46.736;15.666;2024-01-15T10:47:01;96971.44;;;7.90;52.91
55217;BME280;41086;46.736;15.666;2024-01-15T10:49:28;96962.84;;;6.88;55.83
55217;BME280;41086;46.736;15.666;2024-01-15T10:52:01;96961.06;;;7.00;55.47
55217;BME280;41086;46.736;15.666;2024-01-15T10:54:29;96917.72;;;6.93;56.74
55217;BME280;41086;46.736;15.666;2024-01-15T10:56:56;96955.63;;;7.24;57.38
55217;BME280;41086;46.736;15.666;2024-01-15T10:59:24;96967.34;;;7.43;57.37
55217;BME280;41086;46.736;15.666;2024-01-15T11:01:52;96957.38;;;7.46;56.37
55217;BME280;41086;46.736;15.666;2024-01-15T11:04:23;96960.28;;;7.43;58.09
55217;BME280;41086;46.736;15.666;2024-01-15T11:06:54;96957.88;;;6.39;61.01
55217;BME280;41086;46.736;15.666;2024-01-15T11:09:23;96947.13;;;6.07;61.47
55217;BME280;41086;46.736;15.666;2024-01-15T11:12:06;96935.97;;;5.68;65.91
55217;BME280;41086;46.736;15.666;2024-01-15T11:14:39;96935.28;;;6.48;65.39
55217;BME280;41086;46.736;15.666;2024-01-15T11:17:07;96918.91;;;6.89;64.10
55217;BME280;41086;46.736;15.666;2024-01-15T11:19:37;96918.34;;;7.40;61.07
55217;BME280;41086;46.736;15.666;2024-01-15T11:22:47;96930.44;;;7.43;60.19
55217;BME280;41086;46.736;15.666;2024-01-15T11:24:56;96942.72;;;7.10;59.33
55217;BME280;41086;46.736;15.666;2024-01-15T11:27:41;96930.25;;;7.67;58.79
55217;BME280;41086;46.736;15.666;2024-01-15T11:30:09;96931.53;;;7.40;56.29
55217;BME280;41086;46.736;15.666;2024-01-15T11:32:40;96933.38;;;7.72;58.70
55217;BME280;41086;46.736;15.666;2024-01-15T11:35:10;96927.94;;;8.06;57.44
55217;BME280;41086;46.736;15.666;2024-01-15T11:42:59;96907.22;;;8.64;54.55
55217;BME280;41086;46.736;15.666;2024-01-15T11:45:27;96913.31;;;8.85;53.23
55217;BME280;41086;46.736;15.666;2024-01-15T11:48:17;96917.56;;;9.07;50.18
55217;BME280;41086;46.736;15.666;2024-01-15T11:50:49;96920.81;;;9.21;50.53
55217;BME280;41086;46.736;15.666;2024-01-15T11:55:52;96906.06;;;9.18;50.43
55217;BME280;41086;46.736;15.666;2024-01-15T11:58:22;96897.09;;;9.00;49.89
55217;BME280;41086;46.736;15.666;2024-01-15T12:00:51;96917.69;;;9.06;50.61
55217;BME280;41086;46.736;15.666;2024-01-15T12:03:23;96908.91;;;8.65;49.69
55217;BME280;41086;46.736;15.666;2024-01-15T12:05:54;96898.22;;;8.04;49.28
55217;BME280;41086;46.736;15.666;2024-01-15T12:08:24;96902.16;;;8.09;51.04
55217;BME280;41086;46.736;15.666;2024-01-15T12:10:52;96896.81;;;8.20;51.57
55217;BME280;41086;46.736;15.666;2024-01-15T12:13:19;96889.53;;;8.34;51.71
55217;BME280;41086;46.736;15.666;2024-01-15T12:15:47;96890.31;;;8.76;52.56
55217;BME280;41086;46.736;15.666;2024-01-15T12:18:17;96876.31;;;9.26;52.58
55217;BME280;41086;46.736;15.666;2024-01-15T12:20:45;96883.44;;;9.54;50.01
55217;BME280;41086;46.736;15.666;2024-01-15T12:23:16;96880.09;;;9.43;49.15
55217;BME280;41086;46.736;15.666;2024-01-15T12:25:44;96889.97;;;9.50;50.00
55217;BME280;41086;46.736;15.666;2024-01-15T12:28:12;96869.38;;;9.54;50.17
55217;BME280;41086;46.736;15.666;2024-01-15T12:30:39;96873.97;;;10.01;50.03
55217;BME280;41086;46.736;15.666;2024-01-15T12:33:07;96871.66;;;10.54;47.50
55217;BME280;41086;46.736;15.666;2024-01-15T12:35:36;96877.41;;;10.87;48.30
55217;BME280;41086;46.736;15.666;2024-01-15T12:38:03;96876.63;;;11.32;46.07
55217;BME280;41086;46.736;15.666;2024-01-15T12:40:32;96868.50;;;12.75;44.91
55217;BME280;41086;46.736;15.666;2024-01-15T12:43:02;96856.81;;;12.34;43.97
55217;BME280;41086;46.736;15.666;2024-01-15T12:45:30;96860.50;;;12.41;43.67
55217;BME280;41086;46.736;15.666;2024-01-15T12:47:57;96862.16;;;12.42;44.01
55217;BME280;41086;46.736;15.666;2024-01-15T12:50:25;96855.28;;;12.31;43.66
55217;BME280;41086;46.736;15.666;2024-01-15T12:52:54;96868.44;;;11.89;43.08
55217;BME280;41086;46.736;15.666;2024-01-15T12:55:21;96865.72;;;12.07;44.54